sensor_id;sensor_type;location;lat;lon;timestamp;temperature;humidity
20560;DHT22;10438;51.454;6.718;2022-09-03T00:00:16;18.80;16.50
20560;DHT22;10438;51.454;6.718;2022-09-03T00:03:01;18.80;17.30
20560;DHT22;10438;51.454;6.718;2022-09-03T00:08:18;18.80;15.80
20560;DHT22;10438;51.454;6.718;2022-09-03T00:10:58;18.70;17.30
20560;DHT22;10438;51.454;6.718;2022-09-03T00:13:34;18.70;17.00
20560;DHT22;10438;51.454;6.718;2022-09-03T00:16:04;18.70;16.90
20560;DHT22;10438;51.454;6.718;2022-09-03T00:18:36;18.70;19.40
20560;DHT22;10438;51.454;6.718;2022-09-03T00:21:11;18.60;20.30
20560;DHT22;10438;51.454;6.718;2022-09-03T00:23:41;18.60;17.50
20560;DHT22;10438;51.454;6.718;2022-09-03T00:29:08;18.60;20.50
20560;DHT22;10438;51.454;6.718;2022-09-03T00:31:45;18.50;20.20
20560;DHT22;10438;51.454;6.718;2022-09-03T00:36:47;18.50;21.40
20560;DHT22;10438;51.454;6.718;2022-09-03T00:39:15;18.50;22.40
20560;DHT22;10438;51.454;6.718;2022-09-03T00:44:55;18.40;22.50
20560;DHT22;10438;51.454;6.718;2022-09-03T00:53:15;18.20;25.20
20560;DHT22;10438;51.454;6.718;2022-09-03T00:55:51;18.20;25.70
20560;DHT22;10438;51.454;6.718;2022-09-03T01:01:20;18.20;26.50
20560;DHT22;10438;51.454;6.718;2022-09-03T01:06:56;18.10;27.30
20560;DHT22;10438;51.454;6.718;2022-09-03T01:09:28;18.10;28.80
20560;DHT22;10438;51.454;6.718;2022-09-03T01:12:08;18.00;29.40
20560;DHT22;10438;51.454;6.718;2022-09-03T01:34:46;17.60;38.40
20560;DHT22;10438;51.454;6.718;2022-09-03T01:37:30;17.50;37.20
20560;DHT22;10438;51.454;6.718;2022-09-03T01:48:41;17.50;37.80
20560;DHT22;10438;51.454;6.718;2022-09-03T01:59:26;17.40;43.20
20560;DHT22;10438;51.454;6.718;2022-09-03T02:02:07;17.40;43.10
20560;DHT22;10438;51.454;6.718;2022-09-03T02:04:34;17.30;43.90
20560;DHT22;10438;51.454;6.718;2022-09-03T02:07:02;17.30;43.60
20560;DHT22;10438;51.454;6.718;2022-09-03T02:09:28;17.30;46.00
20560;DHT22;10438;51.454;6.718;2022-09-03T02:12:05;17.20;44.80
20560;DHT22;10438;51.454;6.718;2022-09-03T02:14:32;17.20;44.20
20560;DHT22;10438;51.454;6.718;2022-09-03T02:16:59;17.20;47.70
20560;DHT22;10438;51.454;6.718;2022-09-03T02:19:27;17.10;47.60
20560;DHT22;10438;51.454;6.718;2022-09-03T02:21:55;17.10;49.10
20560;DHT22;10438;51.454;6.718;2022-09-03T02:24:21;17.00;50.20
20560;DHT22;10438;51.454;6.718;2022-09-03T02:26:47;17.00;50.60
20560;DHT22;10438;51.454;6.718;2022-09-03T02:29:14;17.10;51.00
20560;DHT22;10438;51.454;6.718;2022-09-03T02:31:42;17.00;52.60
20560;DHT22;10438;51.454;6.718;2022-09-03T02:34:08;17.00;53.50
20560;DHT22;10438;51.454;6.718;2022-09-03T02:36:37;17.00;54.30
20560;DHT22;10438;51.454;6.718;2022-09-03T02:39:04;16.90;56.00
20560;DHT22;10438;51.454;6.718;2022-09-03T02:41:31;16.90;57.10
20560;DHT22;10438;51.454;6.718;2022-09-03T02:46:42;16.90;55.90
20560;DHT22;10438;51.454;6.718;2022-09-03T02:49:08;16.80;57.60
20560;DHT22;10438;51.454;6.718;2022-09-03T02:51:39;16.90;57.90
20560;DHT22;10438;51.454;6.718;2022-09-03T02:54:07;16.80;60.10
20560;DHT22;10438;51.454;6.718;2022-09-03T02:56:33;16.80;59.50
20560;DHT22;10438;51.454;6.718;2022-09-03T02:58:59;16.80;59.30
20560;DHT22;10438;51.454;6.718;2022-09-03T03:01:25;16.70;59.20
20560;DHT22;10438;51.454;6.718;2022-09-03T03:03:51;16.80;59.90
20560;DHT22;10438;51.454;6.718;2022-09-03T03:06:17;16.70;57.50
20560;DHT22;10438;51.454;6.718;2022-09-03T03:08:45;16.70;58.60
20560;DHT22;10438;51.454;6.718;2022-09-03T03:11:11;16.70;61.00
20560;DHT22;10438;51.454;6.718;2022-09-03T03:13:37;16.60;60.60
20560;DHT22;10438;51.454;6.718;2022-09-03T03:16:04;16.60;62.60
20560;DHT22;10438;51.454;6.718;2022-09-03T03:18:33;16.60;62.80
20560;DHT22;10438;51.454;6.718;2022-09-03T03:21:07;16.60;62.80
20560;DHT22;10438;51.454;6.718;2022-09-03T03:23:33;16.60;63.70
20560;DHT22;10438;51.454;6.718;2022-09-03T03:26:04;16.60;61.30
20560;DHT22;10438;51.454;6.718;2022-09-03T03:28:31;16.60;64.60
20560;DHT22;10438;51.454;6.718;2022-09-03T03:31:09;16.60;64.80
20560;DHT22;10438;51.454;6.718;2022-09-03T03:33:36;16.50;65.60
20560;DHT22;10438;51.454;6.718;2022-09-03T03:36:07;16.50;67.80
20560;DHT22;10438;51.454;6.718;2022-09-03T03:38:33;16.50;68.50
20560;DHT22;10438;51.454;6.718;2022-09-03T03:40:59;16.50;68.10
20560;DHT22;10438;51.454;6.718;2022-09-03T03:43:30;16.50;68.00
20560;DHT22;10438;51.454;6.718;2022-09-03T03:45:57;16.50;70.40
20560;DHT22;10438;51.454;6.718;2022-09-03T03:48:23;16.40;71.30
20560;DHT22;10438;51.454;6.718;2022-09-03T03:50:49;16.40;75.40
20560;DHT22;10438;51.454;6.718;2022-09-03T03:53:14;16.40;73.40
20560;DHT22;10438;51.454;6.718;2022-09-03T03:55:40;16.40;72.80
20560;DHT22;10438;51.454;6.718;2022-09-03T03:58:06;16.30;71.00
20560;DHT22;10438;51.454;6.718;2022-09-03T04:00:32;16.40;73.10
20560;DHT22;10438;51.454;6.718;2022-09-03T04:03:01;16.40;75.00
20560;DHT22;10438;51.454;6.718;2022-09-03T04:05:26;16.40;73.40
20560;DHT22;10438;51.454;6.718;2022-09-03T04:07:52;16.40;74.50
20560;DHT22;10438;51.454;6.718;2022-09-03T04:10:17;16.30;75.70
20560;DHT22;10438;51.454;6.718;2022-09-03T04:12:43;16.40;74.00
20560;DHT22;10438;51.454;6.718;2022-09-03T04:15:09;16.30;75.60
20560;DHT22;10438;51.454;6.718;2022-09-03T04:17:34;16.30;78.20
20560;DHT22;10438;51.454;6.718;2022-09-03T04:20:00;16.20;77.50
20560;DHT22;10438;51.454;6.718;2022-09-03T04:22:27;16.20;80.00
20560;DHT22;10438;51.454;6.718;2022-09-03T04:24:54;16.20;80.90
20560;DHT22;10438;51.454;6.718;2022-09-03T04:27:19;16.20;78.70
20560;DHT22;10438;51.454;6.718;2022-09-03T04:29:45;16.20;77.90
20560;DHT22;10438;51.454;6.718;2022-09-03T04:32:10;16.10;79.60
20560;DHT22;10438;51.454;6.718;2022-09-03T04:34:54;16.10;82.00
20560;DHT22;10438;51.454;6.718;2022-09-03T04:37:20;16.10;78.70
20560;DHT22;10438;51.454;6.718;2022-09-03T04:39:45;16.10;79.00
20560;DHT22;10438;51.454;6.718;2022-09-03T04:42:11;16.10;78.20
20560;DHT22;10438;51.454;6.718;2022-09-03T04:44:37;16.10;78.60
20560;DHT22;10438;51.454;6.718;2022-09-03T04:47:03;16.10;79.50
20560;DHT22;10438;51.454;6.718;2022-09-03T04:49:29;16.10;83.10
20560;DHT22;10438;51.454;6.718;2022-09-03T04:51:55;16.10;82.30
20560;DHT22;10438;51.454;6.718;2022-09-03T04:54:20;16.10;82.60
20560;DHT22;10438;51.454;6.718;2022-09-03T04:56:46;16.10;82.60
20560;DHT22;10438;51.454;6.718;2022-09-03T04:59:12;16.00;83.70
20560;DHT22;10438;51.454;6.718;2022-09-03T05:01:39;16.00;81.50
20560;DHT22;10438;51.454;6.718;2022-09-03T05:04:06;16.00;84.20
20560;DHT22;10438;51.454;6.718;2022-09-03T05:06:32;16.00;85.20
20560;DHT22;10438;51.454;6.718;2022-09-03T05:08:58;16.00;87.00
20560;DHT22;10438;51.454;6.718;2022-09-03T05:11:25;16.00;85.30
20560;DHT22;10438;51.454;6.718;2022-09-03T05:13:53;16.00;87.20
20560;DHT22;10438;51.454;6.718;2022-09-03T05:16:20;16.00;89.20
20560;DHT22;10438;51.454;6.718;2022-09-03T05:18:46;16.00;90.60
20560;DHT22;10438;51.454;6.718;2022-09-03T05:21:16;16.00;88.60
20560;DHT22;10438;51.454;6.718;2022-09-03T05:23:44;16.00;88.20
20560;DHT22;10438;51.454;6.718;2022-09-03T05:26:13;16.10;87.40
20560;DHT22;10438;51.454;6.718;2022-09-03T05:28:41;16.10;88.80
20560;DHT22;10438;51.454;6.718;2022-09-03T05:31:12;16.10;85.90
20560;DHT22;10438;51.454;6.718;2022-09-03T05:33:43;16.10;89.90
20560;DHT22;10438;51.454;6.718;2022-09-03T05:36:12;16.00;90.20
20560;DHT22;10438;51.454;6.718;2022-09-03T05:38:39;16.00;89.90
20560;DHT22;10438;51.454;6.718;2022-09-03T05:41:06;16.10;90.30
20560;DHT22;10438;51.454;6.718;2022-09-03T05:43:33;16.10;90.40
20560;DHT22;10438;51.454;6.718;2022-09-03T05:46:10;16.10;89.50
20560;DHT22;10438;51.454;6.718;2022-09-03T05:48:38;16.10;88.80
20560;DHT22;10438;51.454;6.718;2022-09-03T05:51:12;16.10;89.40
20560;DHT22;10438;51.454;6.718;2022-09-03T05:53:40;16.10;90.40
20560;DHT22;10438;51.454;6.718;2022-09-03T05:56:09;16.10;88.60
20560;DHT22;10438;51.454;6.718;2022-09-03T05:58:39;16.20;88.90
20560;DHT22;10438;51.454;6.718;2022-09-03T06:01:17;16.20;90.40
20560;DHT22;10438;51.454;6.718;2022-09-03T06:03:44;16.20;89.60
20560;DHT22;10438;51.454;6.718;2022-09-03T06:06:11;16.20;88.30
20560;DHT22;10438;51.454;6.718;2022-09-03T06:08:38;16.20;90.00
20560;DHT22;10438;51.454;6.718;2022-09-03T06:11:04;16.30;90.00
20560;DHT22;10438;51.454;6.718;2022-09-03T06:13:31;16.20;91.30
20560;DHT22;10438;51.454;6.718;2022-09-03T06:15:58;16.30;90.20
20560;DHT22;10438;51.454;6.718;2022-09-03T06:18:25;16.30;89.20
20560;DHT22;10438;51.454;6.718;2022-09-03T06:21:07;16.40;87.40
20560;DHT22;10438;51.454;6.718;2022-09-03T06:23:34;16.50;89.50
20560;DHT22;10438;51.454;6.718;2022-09-03T06:26:08;16.50;88.70
20560;DHT22;10438;51.454;6.718;2022-09-03T06:28:35;16.60;86.40
20560;DHT22;10438;51.454;6.718;2022-09-03T06:31:03;16.60;87.20
20560;DHT22;10438;51.454;6.718;2022-09-03T06:33:32;16.60;86.00
20560;DHT22;10438;51.454;6.718;2022-09-03T06:35:59;16.70;83.20
20560;DHT22;10438;51.454;6.718;2022-09-03T06:38:28;16.80;84.00
20560;DHT22;10438;51.454;6.718;2022-09-03T06:40:58;16.80;85.20
20560;DHT22;10438;51.454;6.718;2022-09-03T06:43:28;16.90;85.20
20560;DHT22;10438;51.454;6.718;2022-09-03T06:45:56;16.90;81.50
20560;DHT22;10438;51.454;6.718;2022-09-03T06:48:22;17.00;83.00
20560;DHT22;10438;51.454;6.718;2022-09-03T06:50:58;17.10;82.30
20560;DHT22;10438;51.454;6.718;2022-09-03T06:53:26;17.10;83.00
20560;DHT22;10438;51.454;6.718;2022-09-03T06:55:54;17.30;80.50
20560;DHT22;10438;51.454;6.718;2022-09-03T06:58:20;17.40;82.40
20560;DHT22;10438;51.454;6.718;2022-09-03T07:00:47;17.50;76.70
20560;DHT22;10438;51.454;6.718;2022-09-03T07:03:14;17.60;75.40
20560;DHT22;10438;51.454;6.718;2022-09-03T07:05:42;17.70;77.50
20560;DHT22;10438;51.454;6.718;2022-09-03T07:08:09;17.80;72.70
20560;DHT22;10438;51.454;6.718;2022-09-03T07:10:36;18.00;70.60
20560;DHT22;10438;51.454;6.718;2022-09-03T07:13:02;18.10;66.80
20560;DHT22;10438;51.454;6.718;2022-09-03T07:15:27;18.10;68.20
20560;DHT22;10438;51.454;6.718;2022-09-03T07:17:53;18.30;67.50
20560;DHT22;10438;51.454;6.718;2022-09-03T07:20:19;18.40;65.00
20560;DHT22;10438;51.454;6.718;2022-09-03T07:22:45;18.60;63.80
20560;DHT22;10438;51.454;6.718;2022-09-03T07:25:10;18.70;57.10
20560;DHT22;10438;51.454;6.718;2022-09-03T07:27:36;18.80;58.00
20560;DHT22;10438;51.454;6.718;2022-09-03T07:30:01;18.90;50.60
20560;DHT22;10438;51.454;6.718;2022-09-03T07:32:27;19.00;54.00
20560;DHT22;10438;51.454;6.718;2022-09-03T07:34:53;19.10;52.60
20560;DHT22;10438;51.454;6.718;2022-09-03T07:37:18;19.20;50.10
20560;DHT22;10438;51.454;6.718;2022-09-03T07:39:44;19.40;48.30
20560;DHT22;10438;51.454;6.718;2022-09-03T07:42:11;19.60;45.80
20560;DHT22;10438;51.454;6.718;2022-09-03T07:44:36;19.70;46.90
20560;DHT22;10438;51.454;6.718;2022-09-03T07:47:02;19.80;43.60
20560;DHT22;10438;51.454;6.718;2022-09-03T07:49:27;19.90;42.70
20560;DHT22;10438;51.454;6.718;2022-09-03T07:51:53;20.00;42.60
20560;DHT22;10438;51.454;6.718;2022-09-03T07:54:19;20.10;39.30
20560;DHT22;10438;51.454;6.718;2022-09-03T07:56:46;20.20;38.20
20560;DHT22;10438;51.454;6.718;2022-09-03T07:59:12;20.30;32.40
20560;DHT22;10438;51.454;6.718;2022-09-03T08:01:38;20.30;37.00
20560;DHT22;10438;51.454;6.718;2022-09-03T08:04:03;20.60;37.80
20560;DHT22;10438;51.454;6.718;2022-09-03T08:06:32;20.80;36.60
20560;DHT22;10438;51.454;6.718;2022-09-03T08:09:00;21.10;31.40
20560;DHT22;10438;51.454;6.718;2022-09-03T08:11:27;21.40;27.70
20560;DHT22;10438;51.454;6.718;2022-09-03T08:13:58;21.50;26.70
20560;DHT22;10438;51.454;6.718;2022-09-03T08:16:28;21.60;24.70
20560;DHT22;10438;51.454;6.718;2022-09-03T08:18:54;21.80;24.60
20560;DHT22;10438;51.454;6.718;2022-09-03T08:21:21;22.00;24.30
20560;DHT22;10438;51.454;6.718;2022-09-03T08:23:49;22.20;26.00
20560;DHT22;10438;51.454;6.718;2022-09-03T08:26:16;22.40;23.90
20560;DHT22;10438;51.454;6.718;2022-09-03T08:28:42;22.70;25.50
20560;DHT22;10438;51.454;6.718;2022-09-03T08:31:10;22.80;18.00
20560;DHT22;10438;51.454;6.718;2022-09-03T08:33:41;22.90;12.40
20560;DHT22;10438;51.454;6.718;2022-09-03T08:36:12;23.10;14.00
20560;DHT22;10438;51.454;6.718;2022-09-03T08:38:40;23.20;13.70
20560;DHT22;10438;51.454;6.718;2022-09-03T08:41:12;23.40;14.10
20560;DHT22;10438;51.454;6.718;2022-09-03T08:43:59;23.50;11.20
20560;DHT22;10438;51.454;6.718;2022-09-03T08:49:09;23.80;8.70
20560;DHT22;10438;51.454;6.718;2022-09-03T08:51:36;23.90;8.80
20560;DHT22;10438;51.454;6.718;2022-09-03T08:54:06;23.70;7.40
20560;DHT22;10438;51.454;6.718;2022-09-03T08:56:37;23.60;7.10
20560;DHT22;10438;51.454;6.718;2022-09-03T08:59:03;23.70;8.20
20560;DHT22;10438;51.454;6.718;2022-09-03T09:07:10;23.60;6.10
20560;DHT22;10438;51.454;6.718;2022-09-03T09:09:42;23.70;7.60
20560;DHT22;10438;51.454;6.718;2022-09-03T09:12:26;23.90;8.60
20560;DHT22;10438;51.454;6.718;2022-09-03T09:18:18;23.70;6.90
20560;DHT22;10438;51.454;6.718;2022-09-03T09:20:48;24.10;7.30
20560;DHT22;10438;51.454;6.718;2022-09-03T09:26:09;24.00;5.20
20560;DHT22;10438;51.454;6.718;2022-09-03T09:28:37;24.00;5.00
20560;DHT22;10438;51.454;6.718;2022-09-03T09:31:08;24.00;5.10
20560;DHT22;10438;51.454;6.718;2022-09-03T09:33:36;24.30;5.20
20560;DHT22;10438;51.454;6.718;2022-09-03T09:36:05;24.50;4.50
20560;DHT22;10438;51.454;6.718;2022-09-03T09:38:34;24.70;4.90
20560;DHT22;10438;51.454;6.718;2022-09-03T09:41:10;24.80;4.30
20560;DHT22;10438;51.454;6.718;2022-09-03T09:43:36;25.10;5.30
20560;DHT22;10438;51.454;6.718;2022-09-03T09:46:12;25.20;3.30
20560;DHT22;10438;51.454;6.718;2022-09-03T09:48:56;25.30;2.10
20560;DHT22;10438;51.454;6.718;2022-09-03T09:51:22;25.40;3.80
20560;DHT22;10438;51.454;6.718;2022-09-03T09:54:01;25.20;1.80
20560;DHT22;10438;51.454;6.718;2022-09-03T09:56:27;25.10;2.80
20560;DHT22;10438;51.454;6.718;2022-09-03T10:01:28;24.90;3.40
20560;DHT22;10438;51.454;6.718;2022-09-03T10:03:58;24.80;4.00
20560;DHT22;10438;51.454;6.718;2022-09-03T10:06:29;25.10;4.30
20560;DHT22;10438;51.454;6.718;2022-09-03T10:09:19;25.40;4.10
20560;DHT22;10438;51.454;6.718;2022-09-03T10:11:51;25.60;1.80
20560;DHT22;10438;51.454;6.718;2022-09-03T10:14:27;25.70;3.00
20560;DHT22;10438;51.454;6.718;2022-09-03T10:17:04;25.70;4.30
20560;DHT22;10438;51.454;6.718;2022-09-03T10:22:39;25.40;2.00
20560;DHT22;10438;51.454;6.718;2022-09-03T10:25:09;25.20;4.00
20560;DHT22;10438;51.454;6.718;2022-09-03T10:27:35;25.30;4.50
20560;DHT22;10438;51.454;6.718;2022-09-03T10:30:02;25.70;7.10
20560;DHT22;10438;51.454;6.718;2022-09-03T10:35:30;26.00;2.90
20560;DHT22;10438;51.454;6.718;2022-09-03T10:38:14;25.90;5.10
20560;DHT22;10438;51.454;6.718;2022-09-03T10:41:36;26.00;4.20
20560;DHT22;10438;51.454;6.718;2022-09-03T10:46:56;25.70;3.80
20560;DHT22;10438;51.454;6.718;2022-09-03T10:49:31;25.70;3.80
20560;DHT22;10438;51.454;6.718;2022-09-03T10:57:57;26.10;3.70
20560;DHT22;10438;51.454;6.718;2022-09-03T11:00:29;26.30;2.20
20560;DHT22;10438;51.454;6.718;2022-09-03T11:03:24;26.30;2.40
20560;DHT22;10438;51.454;6.718;2022-09-03T11:06:06;26.50;5.00
20560;DHT22;10438;51.454;6.718;2022-09-03T11:08:43;26.80;2.80
20560;DHT22;10438;51.454;6.718;2022-09-03T11:11:31;27.00;3.40
20560;DHT22;10438;51.454;6.718;2022-09-03T11:14:12;26.80;3.60
20560;DHT22;10438;51.454;6.718;2022-09-03T11:16:45;26.80;3.20
20560;DHT22;10438;51.454;6.718;2022-09-03T11:19:15;26.30;2.30
20560;DHT22;10438;51.454;6.718;2022-09-03T11:21:42;26.80;3.30
20560;DHT22;10438;51.454;6.718;2022-09-03T11:26:43;27.30;3.70
20560;DHT22;10438;51.454;6.718;2022-09-03T11:29:29;27.20;1.80
20560;DHT22;10438;51.454;6.718;2022-09-03T11:32:04;26.80;2.40
20560;DHT22;10438;51.454;6.718;2022-09-03T11:34:52;26.90;5.30
20560;DHT22;10438;51.454;6.718;2022-09-03T11:37:25;27.10;4.40
20560;DHT22;10438;51.454;6.718;2022-09-03T11:40:05;27.10;4.60
20560;DHT22;10438;51.454;6.718;2022-09-03T11:47:42;27.10;3.60
20560;DHT22;10438;51.454;6.718;2022-09-03T11:50:23;27.10;6.50
20560;DHT22;10438;51.454;6.718;2022-09-03T11:52:51;27.30;6.60
20560;DHT22;10438;51.454;6.718;2022-09-03T11:55:30;27.60;5.80
20560;DHT22;10438;51.454;6.718;2022-09-03T11:57:56;27.60;4.30
20560;DHT22;10438;51.454;6.718;2022-09-03T12:00:23;27.60;4.20
20560;DHT22;10438;51.454;6.718;2022-09-03T12:02:59;27.60;4.90
20560;DHT22;10438;51.454;6.718;2022-09-03T12:05:41;27.60;6.90
20560;DHT22;10438;51.454;6.718;2022-09-03T12:08:51;27.80;7.20
20560;DHT22;10438;51.454;6.718;2022-09-03T12:14:36;27.80;4.50
20560;DHT22;10438;51.454;6.718;2022-09-03T12:22:17;27.90;2.90
20560;DHT22;10438;51.454;6.718;2022-09-03T12:24:43;27.70;4.10
20560;DHT22;10438;51.454;6.718;2022-09-03T12:29:58;28.30;3.30
20560;DHT22;10438;51.454;6.718;2022-09-03T12:32:26;28.60;2.70
20560;DHT22;10438;51.454;6.718;2022-09-03T12:34:53;28.70;2.30
20560;DHT22;10438;51.454;6.718;2022-09-03T12:37:24;28.80;1.50
20560;DHT22;10438;51.454;6.718;2022-09-03T12:39:54;28.70;1.00
20560;DHT22;10438;51.454;6.718;2022-09-03T12:42:25;28.60;1.00
20560;DHT22;10438;51.454;6.718;2022-09-03T12:44:52;28.60;1.00
20560;DHT22;10438;51.454;6.718;2022-09-03T12:47:23;28.40;1.00
20560;DHT22;10438;51.454;6.718;2022-09-03T12:49:50;28.30;1.00
20560;DHT22;10438;51.454;6.718;2022-09-03T12:52:20;28.20;1.00
20560;DHT22;10438;51.454;6.718;2022-09-03T12:57:54;28.40;1.00
20560;DHT22;10438;51.454;6.718;2022-09-03T13:00:21;28.80;1.00
20560;DHT22;10438;51.454;6.718;2022-09-03T13:02:54;29.00;1.00
20560;DHT22;10438;51.454;6.718;2022-09-03T13:06:10;29.30;1.00
20560;DHT22;10438;51.454;6.718;2022-09-03T13:08:20;29.50;1.00
20560;DHT22;10438;51.454;6.718;2022-09-03T13:10:54;29.40;1.00
20560;DHT22;10438;51.454;6.718;2022-09-03T13:13:27;29.80;1.00
20560;DHT22;10438;51.454;6.718;2022-09-03T13:19:05;29.10;1.00
20560;DHT22;10438;51.454;6.718;2022-09-03T13:28:10;29.50;1.00
20560;DHT22;10438;51.454;6.718;2022-09-03T13:31:03;29.40;1.00
20560;DHT22;10438;51.454;6.718;2022-09-03T13:33:37;29.10;1.00
20560;DHT22;10438;51.454;6.718;2022-09-03T13:38:42;28.80;1.00
20560;DHT22;10438;51.454;6.718;2022-09-03T13:50:00;30.40;1.00
20560;DHT22;10438;51.454;6.718;2022-09-03T13:52:56;30.10;1.00
20560;DHT22;10438;51.454;6.718;2022-09-03T13:55:32;30.00;1.00
20560;DHT22;10438;51.454;6.718;2022-09-03T13:58:03;30.30;1.00
20560;DHT22;10438;51.454;6.718;2022-09-03T14:00:36;30.10;1.00
20560;DHT22;10438;51.454;6.718;2022-09-03T14:06:08;29.60;1.00
20560;DHT22;10438;51.454;6.718;2022-09-03T14:20:11;28.30;1.00
20560;DHT22;10438;51.454;6.718;2022-09-03T14:23:04;28.10;1.00
20560;DHT22;10438;51.454;6.718;2022-09-03T14:25:31;27.50;1.00
20560;DHT22;10438;51.454;6.718;2022-09-03T14:28:17;28.10;1.00
20560;DHT22;10438;51.454;6.718;2022-09-03T14:31:08;29.00;1.00
20560;DHT22;10438;51.454;6.718;2022-09-03T14:33:38;29.70;1.00
20560;DHT22;10438;51.454;6.718;2022-09-03T14:36:22;30.30;1.00
20560;DHT22;10438;51.454;6.718;2022-09-03T14:41:27;31.10;1.00
20560;DHT22;10438;51.454;6.718;2022-09-03T14:44:26;31.10;1.00
20560;DHT22;10438;51.454;6.718;2022-09-03T14:56:16;31.40;1.00
20560;DHT22;10438;51.454;6.718;2022-09-03T15:01:31;32.00;1.00
20560;DHT22;10438;51.454;6.718;2022-09-03T15:04:17;32.40;1.00
20560;DHT22;10438;51.454;6.718;2022-09-03T15:07:11;32.30;1.00
20560;DHT22;10438;51.454;6.718;2022-09-03T15:15:12;32.20;1.00
20560;DHT22;10438;51.454;6.718;2022-09-03T15:20:35;32.50;1.00
20560;DHT22;10438;51.454;6.718;2022-09-03T15:23:29;31.60;1.00
20560;DHT22;10438;51.454;6.718;2022-09-03T15:29:09;29.90;1.00
20560;DHT22;10438;51.454;6.718;2022-09-03T15:37:43;27.70;1.00
20560;DHT22;10438;51.454;6.718;2022-09-03T15:40:34;27.40;1.00
20560;DHT22;10438;51.454;6.718;2022-09-03T15:43:17;27.20;1.00
20560;DHT22;10438;51.454;6.718;2022-09-03T15:53:53;26.90;1.00
20560;DHT22;10438;51.454;6.718;2022-09-03T15:56:40;26.80;1.00
20560;DHT22;10438;51.454;6.718;2022-09-03T15:59:20;26.70;1.30
20560;DHT22;10438;51.454;6.718;2022-09-03T16:01:53;26.50;3.10
20560;DHT22;10438;51.454;6.718;2022-09-03T16:18:23;25.80;7.10
20560;DHT22;10438;51.454;6.718;2022-09-03T16:28:45;26.10;7.80
20560;DHT22;10438;51.454;6.718;2022-09-03T16:31:36;26.30;7.00
20560;DHT22;10438;51.454;6.718;2022-09-03T16:40:28;26.50;6.10
20560;DHT22;10438;51.454;6.718;2022-09-03T16:42:59;26.50;5.50
20560;DHT22;10438;51.454;6.718;2022-09-03T16:45:59;26.40;5.80
20560;DHT22;10438;51.454;6.718;2022-09-03T16:51:21;26.50;5.40
20560;DHT22;10438;51.454;6.718;2022-09-03T16:57:01;26.40;5.10
20560;DHT22;10438;51.454;6.718;2022-09-03T17:08:00;26.10;6.60
20560;DHT22;10438;51.454;6.718;2022-09-03T17:10:45;26.10;7.20
20560;DHT22;10438;51.454;6.718;2022-09-03T17:13:46;26.00;8.50
20560;DHT22;10438;51.454;6.718;2022-09-03T17:16:54;25.90;8.80
20560;DHT22;10438;51.454;6.718;2022-09-03T17:25:16;25.70;11.00
20560;DHT22;10438;51.454;6.718;2022-09-03T17:27:51;25.50;12.50
20560;DHT22;10438;51.454;6.718;2022-09-03T17:44:05;24.70;29.10
20560;DHT22;10438;51.454;6.718;2022-09-03T17:49:22;24.40;41.40
20560;DHT22;10438;51.454;6.718;2022-09-03T17:51:57;24.40;45.10
20560;DHT22;10438;51.454;6.718;2022-09-03T17:54:33;24.20;47.90
20560;DHT22;10438;51.454;6.718;2022-09-03T18:16:11;23.50;78.40
20560;DHT22;10438;51.454;6.718;2022-09-03T18:18:45;23.40;83.00
20560;DHT22;10438;51.454;6.718;2022-09-03T18:21:16;23.40;87.20
20560;DHT22;10438;51.454;6.718;2022-09-03T18:27:45;23.20;90.90
20560;DHT22;10438;51.454;6.718;2022-09-03T18:30:32;23.10;91.80
20560;DHT22;10438;51.454;6.718;2022-09-03T18:33:21;23.10;93.10
20560;DHT22;10438;51.454;6.718;2022-09-03T18:36:07;23.00;93.80
20560;DHT22;10438;51.454;6.718;2022-09-03T18:38:51;23.00;94.00
20560;DHT22;10438;51.454;6.718;2022-09-03T18:47:53;23.10;93.50
20560;DHT22;10438;51.454;6.718;2022-09-03T18:56:58;23.00;94.10
20560;DHT22;10438;51.454;6.718;2022-09-03T19:06:15;22.70;97.50
20560;DHT22;10438;51.454;6.718;2022-09-03T19:09:31;22.60;99.90
20560;DHT22;10438;51.454;6.718;2022-09-03T19:15:28;22.30;99.90
20560;DHT22;10438;51.454;6.718;2022-09-03T19:18:21;22.20;99.90
20560;DHT22;10438;51.454;6.718;2022-09-03T19:24:20;22.00;99.90
20560;DHT22;10438;51.454;6.718;2022-09-03T19:27:28;21.90;99.90
20560;DHT22;10438;51.454;6.718;2022-09-03T19:30:20;21.80;99.90
20560;DHT22;10438;51.454;6.718;2022-09-03T19:33:36;21.70;99.90
20560;DHT22;10438;51.454;6.718;2022-09-03T19:36:28;21.60;99.90
20560;DHT22;10438;51.454;6.718;2022-09-03T19:39:36;21.50;99.90
20560;DHT22;10438;51.454;6.718;2022-09-03T19:42:54;21.50;99.90
20560;DHT22;10438;51.454;6.718;2022-09-03T19:53:00;21.30;99.90
20560;DHT22;10438;51.454;6.718;2022-09-03T19:55:48;21.30;99.90
20560;DHT22;10438;51.454;6.718;2022-09-03T19:58:37;21.20;99.90
20560;DHT22;10438;51.454;6.718;2022-09-03T20:01:25;21.10;99.90
20560;DHT22;10438;51.454;6.718;2022-09-03T20:04:14;21.10;99.90
20560;DHT22;10438;51.454;6.718;2022-09-03T20:07:00;21.10;99.90
20560;DHT22;10438;51.454;6.718;2022-09-03T20:09:46;21.00;99.90
20560;DHT22;10438;51.454;6.718;2022-09-03T20:12:46;21.00;99.90
20560;DHT22;10438;51.454;6.718;2022-09-03T20:15:14;20.90;99.90
20560;DHT22;10438;51.454;6.718;2022-09-03T20:18:00;20.90;99.90
20560;DHT22;10438;51.454;6.718;2022-09-03T20:20:47;20.80;99.90
20560;DHT22;10438;51.454;6.718;2022-09-03T20:23:32;20.80;99.90
20560;DHT22;10438;51.454;6.718;2022-09-03T20:26:03;20.80;99.90
20560;DHT22;10438;51.454;6.718;2022-09-03T20:29:05;20.70;99.90
20560;DHT22;10438;51.454;6.718;2022-09-03T20:34:19;20.60;99.90
20560;DHT22;10438;51.454;6.718;2022-09-03T20:43:02;20.50;99.90
20560;DHT22;10438;51.454;6.718;2022-09-03T20:45:31;20.50;99.90
20560;DHT22;10438;51.454;6.718;2022-09-03T20:48:22;20.40;99.90
20560;DHT22;10438;51.454;6.718;2022-09-03T20:50:56;20.40;99.90
20560;DHT22;10438;51.454;6.718;2022-09-03T20:56:29;20.30;99.90
20560;DHT22;10438;51.454;6.718;2022-09-03T20:59:15;20.20;99.90
20560;DHT22;10438;51.454;6.718;2022-09-03T21:07:49;20.20;99.90
20560;DHT22;10438;51.454;6.718;2022-09-03T21:15:24;20.10;99.90
20560;DHT22;10438;51.454;6.718;2022-09-03T21:23:34;20.00;99.90
20560;DHT22;10438;51.454;6.718;2022-09-03T21:26:18;20.00;99.90
20560;DHT22;10438;51.454;6.718;2022-09-03T21:31:37;19.90;99.90
20560;DHT22;10438;51.454;6.718;2022-09-03T21:34:10;19.90;99.90
20560;DHT22;10438;51.454;6.718;2022-09-03T21:36:39;19.80;99.90
20560;DHT22;10438;51.454;6.718;2022-09-03T21:39:18;19.80;99.90
20560;DHT22;10438;51.454;6.718;2022-09-03T21:42:06;19.80;99.90
20560;DHT22;10438;51.454;6.718;2022-09-03T21:47:15;19.80;99.90
20560;DHT22;10438;51.454;6.718;2022-09-03T21:55:40;19.70;99.90
20560;DHT22;10438;51.454;6.718;2022-09-03T21:58:20;19.70;99.90
20560;DHT22;10438;51.454;6.718;2022-09-03T22:00:55;19.60;99.90
20560;DHT22;10438;51.454;6.718;2022-09-03T22:03:24;19.60;99.90
20560;DHT22;10438;51.454;6.718;2022-09-03T22:06:05;19.60;99.90